Time;durP1;ratioP1;P1;durP2;ratioP2;P2;SDS_P1;SDS_P2;PMS_P1;PMS_P2;Temp;Humidity;BMP_temperature;BMP_pressure;BME280_temperature;BME280_humidity;BME280_pressure;Samples;Min_cycle;Max_cycle;Signal;HPM_P1;HPM_P2
2022/07/20 00:01:32;;;;;;;1.98;1.50;;;;;;;;;;4973978;28;20416;-64
2022/07/20 00:03:57;;;;;;;3.15;1.77;;;;;;;;;;4973726;28;20480;-64
2022/07/20 00:06:22;;;;;;;3.38;1.63;;;;;;;;;;4973603;28;20468;-64
2022/07/20 00:11:32;;;;;;;2.40;1.40;;;;;;;;;;4975354;28;20463;-64
2022/07/20 00:14:02;;;;;;;1.98;1.63;;;;;;;;;;4973666;28;20091;-64
2022/07/20 00:16:30;;;;;;;3.22;1.70;;;;;;;;;;4969782;28;20428;-64
2022/07/20 00:18:55;;;;;;;3.05;1.75;;;;;;;;;;4970571;28;20575;-64
2022/07/20 00:21:21;;;;;;;3.60;1.60;;;;;;;;;;4970497;28;20424;-64
2022/07/20 00:23:47;;;;;;;4.00;2.10;;;;;;;;;;4971303;28;20087;-64
2022/07/20 00:26:12;;;;;;;2.13;1.92;;;;;;;;;;4970753;28;20452;-65
2022/07/20 00:28:38;;;;;;;3.35;1.95;;;;;;;;;;4971943;28;20037;-64
2022/07/20 00:31:04;;;;;;;2.22;1.60;;;;;;;;;;4970836;28;20428;-66
2022/07/20 00:33:29;;;;;;;2.85;1.60;;;;;;;;;;4970031;28;20400;-64
2022/07/20 00:35:54;;;;;;;2.30;1.60;;;;;;;;;;4970201;28;20056;-64
2022/07/20 00:38:20;;;;;;;4.85;2.03;;;;;;;;;;4951979;28;20372;-64
2022/07/20 00:40:45;;;;;;;7.45;1.95;;;;;;;;;;4969933;28;20033;-64
2022/07/20 00:43:11;;;;;;;2.58;1.60;;;;;;;;;;4970035;28;20444;-65
2022/07/20 00:45:36;;;;;;;3.08;1.65;;;;;;;;;;4970208;28;20424;-64
2022/07/20 00:48:02;;;;;;;4.18;1.77;;;;;;;;;;4969637;28;20456;-64
2022/07/20 00:50:28;;;;;;;3.90;1.80;;;;;;;;;;4970045;28;20069;-65
2022/07/20 00:52:53;;;;;;;3.47;1.83;;;;;;;;;;4970784;28;20399;-67
2022/07/20 00:55:19;;;;;;;4.00;1.60;;;;;;;;;;4952329;28;20098;-65
2022/07/20 00:57:44;;;;;;;2.78;1.90;;;;;;;;;;4970432;28;20379;-64
2022/07/20 01:00:10;;;;;;;3.13;1.75;;;;;;;;;;4969806;28;20571;-65
2022/07/20 01:02:39;;;;;;;2.80;1.60;;;;;;;;;;4982364;28;20420;-67
2022/07/20 01:05:05;;;;;;;4.22;1.90;;;;;;;;;;4969167;28;20453;-64
2022/07/20 01:07:31;;;;;;;3.22;1.90;;;;;;;;;;4969439;28;20352;-64
2022/07/20 01:09:56;;;;;;;3.63;2.05;;;;;;;;;;4969598;28;20033;-66
2022/07/20 01:12:22;;;;;;;2.53;1.75;;;;;;;;;;4951353;28;20314;-64
2022/07/20 01:14:53;;;;;;;3.03;1.77;;;;;;;;;;4970680;28;20340;-64
2022/07/20 01:17:18;;;;;;;3.25;1.58;;;;;;;;;;4969448;28;20112;-65
2022/07/20 01:19:44;;;;;;;6.90;2.17;;;;;;;;;;4969184;28;20494;-64
2022/07/20 01:22:09;;;;;;;4.13;2.22;;;;;;;;;;4969452;28;20332;-64
2022/07/20 01:24:34;;;;;;;4.90;2.25;;;;;;;;;;4969315;28;20322;-66
2022/07/20 01:27:00;;;;;;;3.22;1.70;;;;;;;;;;4960422;28;20059;-65
2022/07/20 01:29:25;;;;;;;2.85;1.70;;;;;;;;;;4969355;28;20033;-64
2022/07/20 01:31:51;;;;;;;3.88;1.85;;;;;;;;;;4970502;28;20476;-64
2022/07/20 01:34:16;;;;;;;2.88;1.83;;;;;;;;;;4970752;28;20060;-66
2022/07/20 01:36:41;;;;;;;3.08;1.77;;;;;;;;;;4970845;28;20056;-64
2022/07/20 01:39:07;;;;;;;4.65;2.50;;;;;;;;;;4970312;28;20345;-64
2022/07/20 01:41:32;;;;;;;3.30;1.73;;;;;;;;;;4971151;28;20407;-64
2022/07/20 01:43:57;;;;;;;3.00;1.83;;;;;;;;;;4970563;28;20409;-64
2022/07/20 01:46:23;;;;;;;3.67;1.70;;;;;;;;;;4970293;28;20523;-65
2022/07/20 01:48:48;;;;;;;3.10;1.90;;;;;;;;;;4970618;28;20317;-64
2022/07/20 01:51:14;;;;;;;3.10;1.75;;;;;;;;;;4971616;28;20479;-64
2022/07/20 01:53:39;;;;;;;4.25;1.88;;;;;;;;;;4970739;28;20356;-64
2022/07/20 01:56:05;;;;;;;3.38;1.90;;;;;;;;;;4970409;28;20456;-64
2022/07/20 01:58:30;;;;;;;5.05;1.85;;;;;;;;;;4969971;28;20479;-64
2022/07/20 02:00:56;;;;;;;2.55;1.58;;;;;;;;;;4970084;28;20475;-64
2022/07/20 02:03:21;;;;;;;3.08;1.90;;;;;;;;;;4970715;28;20025;-64
2022/07/20 02:05:47;;;;;;;2.90;1.88;;;;;;;;;;4970129;28;20416;-64
2022/07/20 02:08:12;;;;;;;3.30;1.55;;;;;;;;;;4970285;28;20052;-64
2022/07/20 02:10:38;;;;;;;3.60;1.60;;;;;;;;;;4970721;28;20421;-64
2022/07/20 02:13:03;;;;;;;2.92;1.73;;;;;;;;;;4971165;28;20329;-64
2022/07/20 02:18:13;;;;;;;2.65;1.75;;;;;;;;;;4970226;28;20360;-65
2022/07/20 02:20:40;;;;;;;5.35;1.92;;;;;;;;;;4969902;28;20460;-64
2022/07/20 02:23:06;;;;;;;3.13;1.77;;;;;;;;;;4969479;28;20429;-64
2022/07/20 02:25:32;;;;;;;4.18;2.33;;;;;;;;;;4969637;28;20419;-64
2022/07/20 02:27:57;;;;;;;2.08;1.63;;;;;;;;;;4951754;28;20167;-64
2022/07/20 02:30:23;;;;;;;5.97;1.98;;;;;;;;;;4970873;28;20341;-65
2022/07/20 02:32:48;;;;;;;4.15;1.63;;;;;;;;;;4969625;28;20447;-64
2022/07/20 02:35:15;;;;;;;4.50;2.20;;;;;;;;;;4970006;28;20324;-64
2022/07/20 02:37:40;;;;;;;2.03;1.48;;;;;;;;;;4969487;28;20424;-64
2022/07/20 02:40:06;;;;;;;4.50;2.10;;;;;;;;;;4969571;28;20363;-64
2022/07/20 02:42:32;;;;;;;3.10;2.13;;;;;;;;;;4969842;28;20433;-64
2022/07/20 02:44:57;;;;;;;3.40;1.70;;;;;;;;;;4969686;28;20433;-64
2022/07/20 02:47:23;;;;;;;2.28;1.58;;;;;;;;;;4969537;28;20344;-64
2022/07/20 02:49:48;;;;;;;3.08;1.80;;;;;;;;;;4969867;28;20044;-64
2022/07/20 02:52:13;;;;;;;4.20;2.42;;;;;;;;;;4969086;28;20352;-64
2022/07/20 02:54:39;;;;;;;4.85;1.92;;;;;;;;;;4969554;28;20380;-64
2022/07/20 02:57:04;;;;;;;5.35;1.83;;;;;;;;;;4970864;28;20079;-64
2022/07/20 02:59:30;;;;;;;4.43;1.70;;;;;;;;;;4969404;28;20045;-64
2022/07/20 03:01:55;;;;;;;3.80;2.08;;;;;;;;;;4969647;28;20464;-64
2022/07/20 03:04:20;;;;;;;4.35;2.10;;;;;;;;;;4969355;28;20136;-65
2022/07/20 03:06:46;;;;;;;2.33;1.65;;;;;;;;;;4970457;28;20345;-64
2022/07/20 03:09:11;;;;;;;4.53;1.98;;;;;;;;;;4969371;28;20394;-64
2022/07/20 03:11:37;;;;;;;4.10;2.05;;;;;;;;;;4969437;28;20432;-65
2022/07/20 03:14:02;;;;;;;2.97;1.98;;;;;;;;;;4969160;28;20052;-64
2022/07/20 03:16:27;;;;;;;3.72;2.10;;;;;;;;;;4969068;28;20044;-64
2022/07/20 03:18:53;;;;;;;2.85;1.70;;;;;;;;;;4970326;28;20037;-64
2022/07/20 03:21:18;;;;;;;2.83;1.77;;;;;;;;;;4969555;28;20439;-64
2022/07/20 03:23:43;;;;;;;4.97;2.38;;;;;;;;;;4969292;28;20448;-64
2022/07/20 03:26:09;;;;;;;3.58;1.90;;;;;;;;;;4969547;28;20021;-64
2022/07/20 03:28:34;;;;;;;3.30;2.00;;;;;;;;;;4968904;28;20384;-66
2022/07/20 03:31:00;;;;;;;5.75;2.20;;;;;;;;;;4960899;28;20487;-64
2022/07/20 03:33:25;;;;;;;2.50;1.60;;;;;;;;;;4969703;28;20447;-64
2022/07/20 03:35:51;;;;;;;2.85;1.88;;;;;;;;;;4969109;28;20061;-64
2022/07/20 03:38:16;;;;;;;2.38;1.60;;;;;;;;;;4969400;28;20451;-64
2022/07/20 03:40:41;;;;;;;3.63;2.00;;;;;;;;;;4969264;28;20472;-64
2022/07/20 03:43:07;;;;;;;3.38;1.85;;;;;;;;;;4970305;28;20352;-65
2022/07/20 03:45:32;;;;;;;5.90;2.22;;;;;;;;;;4971097;28;20455;-64
2022/07/20 03:47:59;;;;;;;3.35;1.83;;;;;;;;;;4969199;28;20143;-64
2022/07/20 03:50:24;;;;;;;3.75;1.90;;;;;;;;;;4970294;28;20349;-64
2022/07/20 03:52:50;;;;;;;2.90;1.65;;;;;;;;;;4972608;28;20369;-64
2022/07/20 03:55:16;;;;;;;3.60;1.95;;;;;;;;;;4972889;28;20310;-65
2022/07/20 03:57:41;;;;;;;2.42;1.70;;;;;;;;;;4973010;28;20064;-64
2022/07/20 04:00:07;;;;;;;5.13;2.45;;;;;;;;;;4972448;28;20067;-64
2022/07/20 04:02:33;;;;;;;4.00;1.77;;;;;;;;;;4954877;28;20326;-64
2022/07/20 04:04:58;;;;;;;4.70;1.77;;;;;;;;;;4972618;28;20360;-65
2022/07/20 04:07:23;;;;;;;3.88;2.33;;;;;;;;;;4972385;28;20329;-64
2022/07/20 04:09:49;;;;;;;4.13;2.17;;;;;;;;;;4973371;28;20467;-64
2022/07/20 04:12:20;;;;;;;4.50;2.28;;;;;;;;;;4972391;28;20344;-64
2022/07/20 04:14:47;;;;;;;4.45;2.15;;;;;;;;;;4955230;28;20041;-64
2022/07/20 04:17:12;;;;;;;3.53;1.80;;;;;;;;;;4972238;28;20053;-65
2022/07/20 04:19:38;;;;;;;3.22;1.80;;;;;;;;;;4972286;28;20026;-64
2022/07/20 04:22:03;;;;;;;3.60;2.00;;;;;;;;;;4972043;28;20368;-65
2022/07/20 04:24:29;;;;;;;4.63;2.00;;;;;;;;;;4972036;28;20444;-66
2022/07/20 04:26:55;;;;;;;7.65;2.33;;;;;;;;;;4972054;28;20324;-64
2022/07/20 04:29:23;;;;;;;4.93;2.00;;;;;;;;;;4972655;28;20278;-64
2022/07/20 04:31:49;;;;;;;6.35;1.70;;;;;;;;;;4973074;28;20376;-64
2022/07/20 04:34:15;;;;;;;5.90;2.00;;;;;;;;;;4972130;28;20460;-64
2022/07/20 04:36:40;;;;;;;3.30;1.85;;;;;;;;;;4971680;28;20318;-64
2022/07/20 04:39:05;;;;;;;2.55;1.80;;;;;;;;;;4972949;28;20052;-64
2022/07/20 04:41:31;;;;;;;2.60;1.80;;;;;;;;;;4971504;28;20522;-64
2022/07/20 04:43:56;;;;;;;3.97;2.33;;;;;;;;;;4971995;28;20421;-64
2022/07/20 04:46:22;;;;;;;3.65;1.88;;;;;;;;;;4971589;28;20344;-64
2022/07/20 04:48:47;;;;;;;3.65;1.70;;;;;;;;;;4971754;28;20048;-64
2022/07/20 04:51:12;;;;;;;3.38;1.80;;;;;;;;;;4971276;28;20025;-64
2022/07/20 04:53:38;;;;;;;3.08;2.10;;;;;;;;;;4969130;28;20432;-65
2022/07/20 04:56:03;;;;;;;3.58;1.90;;;;;;;;;;4972409;28;20466;-64
2022/07/20 04:58:32;;;;;;;3.15;1.77;;;;;;;;;;4969485;28;20460;-66
2022/07/20 05:00:58;;;;;;;4.93;2.40;;;;;;;;;;4969739;28;20443;-64
2022/07/20 05:03:23;;;;;;;3.35;2.00;;;;;;;;;;4971044;28;20365;-64
2022/07/20 05:05:49;;;;;;;4.38;2.05;;;;;;;;;;4972199;28;20330;-64
2022/07/20 05:08:14;;;;;;;4.00;1.95;;;;;;;;;;4969561;28;20038;-66
2022/07/20 05:10:40;;;;;;;6.20;2.65;;;;;;;;;;4952271;28;20029;-64
2022/07/20 05:13:05;;;;;;;3.58;2.25;;;;;;;;;;4969758;28;20419;-64
2022/07/20 05:15:31;;;;;;;4.18;2.05;;;;;;;;;;4970801;28;20379;-64
2022/07/20 05:17:56;;;;;;;4.55;2.38;;;;;;;;;;4969257;28;20345;-64
2022/07/20 05:20:22;;;;;;;3.38;1.88;;;;;;;;;;4969119;28;20472;-64
2022/07/20 05:22:47;;;;;;;3.55;2.00;;;;;;;;;;4952192;28;20457;-65
2022/07/20 05:25:13;;;;;;;3.35;2.00;;;;;;;;;;4969970;28;20329;-65
2022/07/20 05:27:39;;;;;;;4.43;2.15;;;;;;;;;;4969161;28;20436;-63
2022/07/20 05:30:05;;;;;;;5.18;2.00;;;;;;;;;;4969041;28;20021;-64
2022/07/20 05:32:31;;;;;;;4.18;1.98;;;;;;;;;;4968742;28;20415;-64
2022/07/20 05:34:56;;;;;;;2.65;1.75;;;;;;;;;;4969006;28;20384;-63
2022/07/20 05:37:22;;;;;;;3.35;1.83;;;;;;;;;;4971091;28;20329;-64
2022/07/20 05:39:47;;;;;;;4.95;1.95;;;;;;;;;;4970191;28;20384;-64
2022/07/20 05:42:13;;;;;;;3.42;1.90;;;;;;;;;;4968813;28;20524;-64
2022/07/20 05:44:39;;;;;;;3.05;1.80;;;;;;;;;;4969155;28;20433;-65
2022/07/20 05:47:06;;;;;;;3.63;1.85;;;;;;;;;;4968970;28;20428;-64
2022/07/20 05:49:33;;;;;;;2.90;1.98;;;;;;;;;;4970499;28;20048;-64
2022/07/20 05:51:59;;;;;;;3.10;1.52;;;;;;;;;;4969954;28;20407;-64
2022/07/20 05:54:24;;;;;;;3.50;2.17;;;;;;;;;;4971522;28;20048;-63
2022/07/20 05:56:49;;;;;;;4.78;1.88;;;;;;;;;;4971803;28;20418;-64
2022/07/20 05:59:15;;;;;;;3.15;1.92;;;;;;;;;;4970293;28;20385;-63
2022/07/20 06:01:43;;;;;;;3.28;1.65;;;;;;;;;;4970215;28;20052;-64
2022/07/20 06:04:09;;;;;;;3.88;1.92;;;;;;;;;;4970229;28;20426;-65
2022/07/20 06:06:35;;;;;;;3.78;2.20;;;;;;;;;;4970378;28;20320;-64
2022/07/20 06:09:00;;;;;;;2.90;1.75;;;;;;;;;;4970884;28;20037;-64
2022/07/20 06:11:26;;;;;;;4.85;2.17;;;;;;;;;;4970477;28;20477;-64
2022/07/20 06:13:51;;;;;;;2.75;1.90;;;;;;;;;;4969611;28;20440;-64
2022/07/20 06:16:16;;;;;;;3.25;1.90;;;;;;;;;;4969792;28;20120;-64
2022/07/20 06:18:42;;;;;;;2.22;1.55;;;;;;;;;;4970025;28;20025;-65
2022/07/20 06:21:07;;;;;;;3.22;1.92;;;;;;;;;;4971022;28;20053;-64
2022/07/20 06:23:33;;;;;;;3.45;1.98;;;;;;;;;;4970389;28;20468;-64
2022/07/20 06:25:58;;;;;;;2.42;1.88;;;;;;;;;;4970326;28;20052;-64
2022/07/20 06:28:23;;;;;;;3.20;1.70;;;;;;;;;;4969940;28;20108;-63
2022/07/20 06:30:50;;;;;;;3.35;1.77;;;;;;;;;;4970354;28;20033;-64
2022/07/20 06:33:15;;;;;;;2.63;1.63;;;;;;;;;;4971005;28;20432;-64
2022/07/20 06:35:40;;;;;;;3.05;1.65;;;;;;;;;;4970401;28;20440;-64
2022/07/20 06:38:06;;;;;;;4.45;1.90;;;;;;;;;;4970541;28;20420;-64
2022/07/20 06:40:31;;;;;;;3.17;2.00;;;;;;;;;;4969746;28;20436;-64
2022/07/20 06:42:57;;;;;;;3.60;2.22;;;;;;;;;;4968619;28;20494;-64
2022/07/20 06:45:22;;;;;;;3.55;2.17;;;;;;;;;;4969596;28;20341;-63
2022/07/20 06:47:49;;;;;;;3.15;1.80;;;;;;;;;;4967858;28;20439;-63
2022/07/20 06:50:15;;;;;;;6.32;1.92;;;;;;;;;;4950297;28;20392;-64
2022/07/20 06:52:40;;;;;;;3.75;1.58;;;;;;;;;;4968149;28;20069;-64
2022/07/20 06:55:06;;;;;;;4.43;1.95;;;;;;;;;;4968519;28;20444;-63
2022/07/20 06:57:32;;;;;;;2.97;2.10;;;;;;;;;;4967462;28;20284;-64
2022/07/20 06:59:57;;;;;;;5.28;1.83;;;;;;;;;;4967377;28;20049;-63
2022/07/20 07:02:22;;;;;;;2.38;1.70;;;;;;;;;;4969524;28;20052;-63
2022/07/20 07:04:48;;;;;;;2.75;1.80;;;;;;;;;;4968443;28;20448;-63
2022/07/20 07:07:14;;;;;;;3.63;2.03;;;;;;;;;;4968348;28;20025;-64
2022/07/20 07:09:39;;;;;;;2.72;1.75;;;;;;;;;;4950401;28;20364;-64
2022/07/20 07:12:05;;;;;;;5.20;2.25;;;;;;;;;;4969006;28;20380;-64
2022/07/20 07:14:30;;;;;;;5.30;1.77;;;;;;;;;;4967604;28;20481;-64
2022/07/20 07:16:56;;;;;;;3.03;1.88;;;;;;;;;;4967207;28;20475;-64
2022/07/20 07:19:21;;;;;;;4.03;1.98;;;;;;;;;;4967613;28;20490;-64
2022/07/20 07:21:47;;;;;;;3.42;1.90;;;;;;;;;;4968886;28;20416;-64
2022/07/20 07:24:12;;;;;;;3.55;1.90;;;;;;;;;;4968880;28;20026;-63
2022/07/20 07:26:37;;;;;;;2.65;1.88;;;;;;;;;;4971811;28;20426;-64
2022/07/20 07:29:03;;;;;;;3.60;1.98;;;;;;;;;;4971830;28;20433;-64
2022/07/20 07:31:28;;;;;;;2.97;2.20;;;;;;;;;;4971315;28;20344;-64
2022/07/20 07:33:54;;;;;;;4.10;1.92;;;;;;;;;;4971022;28;20053;-63
2022/07/20 07:36:19;;;;;;;5.53;2.17;;;;;;;;;;4971004;28;20384;-65
2022/07/20 07:38:45;;;;;;;2.95;1.63;;;;;;;;;;4971490;28;20025;-63
2022/07/20 07:41:11;;;;;;;3.25;1.60;;;;;;;;;;4971496;28;20425;-63
2022/07/20 07:43:36;;;;;;;3.72;2.00;;;;;;;;;;4953281;28;20446;-63
2022/07/20 07:46:02;;;;;;;3.30;1.83;;;;;;;;;;4973172;28;20056;-66
2022/07/20 07:48:27;;;;;;;2.38;1.83;;;;;;;;;;4971238;28;20340;-64
2022/07/20 07:50:52;;;;;;;2.58;1.70;;;;;;;;;;4971146;28;20324;-63
2022/07/20 07:53:18;;;;;;;2.80;1.83;;;;;;;;;;4971172;28;20448;-63
2022/07/20 07:55:43;;;;;;;4.00;2.13;;;;;;;;;;4971020;28;20444;-64
2022/07/20 07:58:10;;;;;;;2.80;1.70;;;;;;;;;;4970771;28;20095;-63
2022/07/20 08:00:36;;;;;;;3.42;2.17;;;;;;;;;;4933557;28;20377;-63
2022/07/20 08:03:03;;;;;;;2.22;1.73;;;;;;;;;;4952090;28;20029;-63
2022/07/20 08:05:28;;;;;;;3.03;1.70;;;;;;;;;;4952560;28;20057;-64
2022/07/20 08:07:54;;;;;;;2.25;1.50;;;;;;;;;;4952869;28;20444;-64
2022/07/20 08:10:19;;;;;;;3.63;1.70;;;;;;;;;;4952198;28;20056;-64
2022/07/20 08:12:45;;;;;;;3.10;1.65;;;;;;;;;;4951721;28;20306;-64
2022/07/20 08:15:11;;;;;;;2.92;1.40;;;;;;;;;;4951212;28;20558;-63
2022/07/20 08:17:36;;;;;;;3.72;1.85;;;;;;;;;;4951130;28;20502;-64
2022/07/20 08:20:05;;;;;;;2.65;1.50;;;;;;;;;;4951445;28;20464;-64
2022/07/20 08:22:30;;;;;;;;;;;;;;;;;;4951397;28;20448;-63
2022/07/20 08:24:56;;;;;;;3.50;1.70;;;;;;;;;;4951487;28;20448;-66
2022/07/20 08:27:21;;;;;;;3.45;1.65;;;;;;;;;;4951711;28;20131;-63
2022/07/20 08:29:47;;;;;;;2.47;1.45;;;;;;;;;;4952380;28;20026;-64
2022/07/20 08:32:13;;;;;;;4.28;1.50;;;;;;;;;;4951351;28;20487;-67
2022/07/20 08:34:38;;;;;;;3.00;1.63;;;;;;;;;;4951277;28;20500;-64
2022/07/20 08:37:04;;;;;;;2.90;1.63;;;;;;;;;;4949754;28;20056;-65
2022/07/20 08:39:29;;;;;;;2.33;1.80;;;;;;;;;;4951041;28;20030;-64
2022/07/20 08:41:54;;;;;;;3.40;1.52;;;;;;;;;;4951444;28;20026;-64
2022/07/20 08:44:20;;;;;;;3.15;1.70;;;;;;;;;;4952047;28;20048;-64
2022/07/20 08:46:45;;;;;;;2.65;1.45;;;;;;;;;;4932716;28;20038;-64
2022/07/20 08:49:14;;;;;;;3.65;1.92;;;;;;;;;;4951924;28;20337;-63
2022/07/20 08:51:40;;;;;;;2.85;1.77;;;;;;;;;;4952122;28;20349;-65
2022/07/20 08:54:05;;;;;;;3.75;2.00;;;;;;;;;;4952783;28;20033;-62
2022/07/20 08:56:31;;;;;;;3.60;1.58;;;;;;;;;;4952099;28;20445;-63
2022/07/20 08:58:57;;;;;;;3.03;1.48;;;;;;;;;;4957941;28;20524;-64
2022/07/20 09:01:22;;;;;;;2.42;1.40;;;;;;;;;;4971762;28;20391;-64
2022/07/20 09:04:11;;;;;;;3.63;1.65;;;;;;;;;;4972002;28;20033;-64
2022/07/20 09:06:47;;;;;;;3.03;2.03;;;;;;;;;;4971631;28;20301;-63
2022/07/20 09:09:13;;;;;;;2.55;1.80;;;;;;;;;;4972219;28;20466;-64
2022/07/20 09:11:39;;;;;;;3.60;1.90;;;;;;;;;;4969253;28;20025;-63
2022/07/20 09:14:04;;;;;;;2.75;1.70;;;;;;;;;;4971030;28;20514;-63
2022/07/20 09:16:40;;;;;;;4.13;1.85;;;;;;;;;;4971311;28;20421;-64
2022/07/20 09:19:06;;;;;;;3.17;1.75;;;;;;;;;;4964200;28;20025;-63
2022/07/20 09:21:32;;;;;;;2.03;1.45;;;;;;;;;;4970633;28;20451;-64
2022/07/20 09:24:03;;;;;;;3.05;1.80;;;;;;;;;;4971481;28;20440;-63
2022/07/20 09:26:29;;;;;;;3.03;1.73;;;;;;;;;;4971182;28;20316;-63
2022/07/20 09:28:56;;;;;;;3.20;1.92;;;;;;;;;;4970628;28;20029;-64
2022/07/20 09:31:35;;;;;;;3.58;1.55;;;;;;;;;;4971339;28;20344;-63
2022/07/20 09:34:13;;;;;;;2.55;1.55;;;;;;;;;;4971000;28;20432;-63
2022/07/20 09:36:45;;;;;;;3.50;1.85;;;;;;;;;;4970936;28;20383;-64
2022/07/20 09:39:13;;;;;;;2.40;1.50;;;;;;;;;;4970781;28;20431;-63
2022/07/20 09:41:41;;;;;;;2.40;1.52;;;;;;;;;;4970365;28;20436;-64
2022/07/20 09:44:08;;;;;;;2.83;1.50;;;;;;;;;;4970543;28;20112;-64
2022/07/20 09:46:35;;;;;;;4.57;1.63;;;;;;;;;;4970324;28;20447;-63
2022/07/20 09:49:04;;;;;;;2.47;1.60;;;;;;;;;;4969640;28;20417;-63
2022/07/20 09:51:31;;;;;;;1.90;1.30;;;;;;;;;;4971186;28;20317;-64
2022/07/20 09:54:03;;;;;;;3.05;1.80;;;;;;;;;;4970338;28;20557;-63
2022/07/20 09:56:28;;;;;;;2.28;1.73;;;;;;;;;;4971654;28;20374;-64
2022/07/20 09:58:55;;;;;;;3.45;1.77;;;;;;;;;;4969080;28;20408;-64
2022/07/20 10:01:28;;;;;;;3.13;1.58;;;;;;;;;;4970373;28;20075;-63
2022/07/20 10:03:56;;;;;;;2.28;1.40;;;;;;;;;;4969546;28;20478;-63
2022/07/20 10:06:23;;;;;;;2.38;1.48;;;;;;;;;;4968324;28;20359;-64
2022/07/20 10:08:49;;;;;;;2.38;1.30;;;;;;;;;;4969622;28;20404;-64
2022/07/20 10:11:16;;;;;;;2.95;1.40;;;;;;;;;;4968856;28;20033;-63
2022/07/20 10:13:43;;;;;;;4.10;1.85;;;;;;;;;;4969294;28;20395;-64
2022/07/20 10:16:27;;;;;;;2.15;1.30;;;;;;;;;;4950674;28;20352;-63
2022/07/20 10:18:54;;;;;;;2.65;1.75;;;;;;;;;;4950775;28;20487;-64
2022/07/20 10:21:39;;;;;;;3.70;1.60;;;;;;;;;;4968120;28;20022;-64
2022/07/20 10:24:30;;;;;;;2.42;1.45;;;;;;;;;;4969248;28;20424;-63
2022/07/20 10:27:25;;;;;;;2.55;1.50;;;;;;;;;;4969294;28;20341;-65
2022/07/20 10:29:53;;;;;;;2.42;1.52;;;;;;;;;;4968303;28;20344;-63
2022/07/20 10:32:20;;;;;;;3.10;1.60;;;;;;;;;;4950081;28;20341;-64
2022/07/20 10:34:48;;;;;;;3.55;1.45;;;;;;;;;;4968260;28;20333;-63
2022/07/20 10:37:35;;;;;;;2.67;1.88;;;;;;;;;;4968802;28;20432;-64
2022/07/20 10:40:04;;;;;;;3.20;1.42;;;;;;;;;;4969321;28;20409;-63
2022/07/20 10:42:32;;;;;;;3.10;1.50;;;;;;;;;;4970296;28;20443;-64
2022/07/20 10:45:16;;;;;;;7.35;1.40;;;;;;;;;;4969455;28;20345;-64
2022/07/20 10:47:45;;;;;;;1.92;1.40;;;;;;;;;;4153646;28;10001522;-65
2022/07/20 10:50:17;;;;;;;2.55;1.70;;;;;;;;;;4953939;28;20313;-63
2022/07/20 10:52:42;;;;;;;3.45;1.50;;;;;;;;;;4969071;28;20523;-64
2022/07/20 10:55:31;;;;;;;2.33;1.52;;;;;;;;;;4969804;28;20582;-65
2022/07/20 10:57:56;;;;;;;2.78;1.30;;;;;;;;;;4968511;28;20458;-64
2022/07/20 11:00:54;;;;;;;1.73;1.20;;;;;;;;;;4968084;28;20057;-64
2022/07/20 11:03:25;;;;;;;4.13;1.60;;;;;;;;;;4947432;28;20400;-64
2022/07/20 11:06:10;;;;;;;2.92;1.60;;;;;;;;;;4968959;28;20026;-64
2022/07/20 11:08:38;;;;;;;2.60;1.63;;;;;;;;;;4968527;28;20431;-64
2022/07/20 11:11:04;;;;;;;2.88;1.60;;;;;;;;;;4968733;28;20029;-64
2022/07/20 11:13:30;;;;;;;1.92;1.25;;;;;;;;;;4968716;28;20048;-64
2022/07/20 11:16:02;;;;;;;3.00;1.30;;;;;;;;;;4970249;28;20495;-65
2022/07/20 11:18:30;;;;;;;2.80;1.10;;;;;;;;;;4968302;28;20499;-64
2022/07/20 11:20:58;;;;;;;1.45;1.02;;;;;;;;;;4951068;28;20394;-64
2022/07/20 11:23:26;;;;;;;2.47;1.10;;;;;;;;;;4968278;28;20030;-64
2022/07/20 11:25:59;;;;;;;1.50;1.17;;;;;;;;;;4968650;28;20475;-64
2022/07/20 11:28:27;;;;;;;2.25;1.55;;;;;;;;;;4968008;28;20368;-65
2022/07/20 11:30:54;;;;;;;2.45;1.35;;;;;;;;;;4967912;28;20030;-65
2022/07/20 11:33:23;;;;;;;1.63;1.20;;;;;;;;;;4968155;28;20591;-65
2022/07/20 11:35:48;;;;;;;2.15;1.10;;;;;;;;;;4967466;28;20460;-64
2022/07/20 11:38:14;;;;;;;2.40;1.15;;;;;;;;;;4967937;28;20344;-64
2022/07/20 11:40:39;;;;;;;2.00;1.23;;;;;;;;;;4950567;28;20333;-65
2022/07/20 11:43:09;;;;;;;2.08;1.00;;;;;;;;;;4967775;28;20352;-64
2022/07/20 11:45:35;;;;;;;2.70;1.25;;;;;;;;;;4968095;28;20548;-64
2022/07/20 11:48:03;;;;;;;1.52;1.10;;;;;;;;;;4968651;28;20520;-65
2022/07/20 11:50:33;;;;;;;2.20;1.40;;;;;;;;;;4968486;28;20157;-65
2022/07/20 11:52:58;;;;;;;2.25;1.15;;;;;;;;;;4967828;28;20395;-64
2022/07/20 11:55:44;;;;;;;2.30;1.40;;;;;;;;;;4967407;28;20339;-64
2022/07/20 11:58:09;;;;;;;1.48;1.20;;;;;;;;;;4967302;28;20045;-62
2022/07/20 12:00:35;;;;;;;1.58;1.10;;;;;;;;;;4968689;28;20428;-62
2022/07/20 12:03:00;;;;;;;1.63;1.20;;;;;;;;;;4968631;28;20467;-62
2022/07/20 12:05:26;;;;;;;1.23;1.10;;;;;;;;;;4951045;28;20097;-61
2022/07/20 12:08:10;;;;;;;1.70;1.10;;;;;;;;;;4949706;28;20441;-62
2022/07/20 12:10:35;;;;;;;2.10;1.25;;;;;;;;;;4967705;28;20456;-66
2022/07/20 12:13:05;;;;;;;1.50;1.05;;;;;;;;;;4970726;28;20524;-61
2022/07/20 12:15:31;;;;;;;2.25;1.70;;;;;;;;;;4971553;28;20545;-64
2022/07/20 12:17:57;;;;;;;2.42;1.17;;;;;;;;;;4971096;28;20383;-64
2022/07/20 12:20:24;;;;;;;3.70;1.10;;;;;;;;;;4972227;28;20033;-65
2022/07/20 12:22:55;;;;;;;1.33;1.10;;;;;;;;;;4971732;28;20383;-65
2022/07/20 12:25:21;;;;;;;2.13;1.45;;;;;;;;;;4972851;28;20313;-62
2022/07/20 12:27:46;;;;;;;1.83;1.08;;;;;;;;;;4970442;28;20375;-62
2022/07/20 12:30:27;;;;;;;1.40;1.25;;;;;;;;;;4953944;28;20342;-65
2022/07/20 12:33:06;;;;;;;1.20;0.95;;;;;;;;;;4970724;28;20448;-63
2022/07/20 12:35:33;;;;;;;2.63;1.10;;;;;;;;;;4971880;28;20446;-64
2022/07/20 12:37:59;;;;;;;2.35;1.08;;;;;;;;;;4970773;28;20443;-64
2022/07/20 12:40:39;;;;;;;2.00;1.20;;;;;;;;;;4970252;28;20344;-64
2022/07/20 12:43:24;;;;;;;4.05;1.30;;;;;;;;;;4970025;28;20515;-65
2022/07/20 12:45:50;;;;;;;1.70;1.00;;;;;;;;;;4970668;28;20389;-65
2022/07/20 12:48:15;;;;;;;1.75;1.20;;;;;;;;;;4970056;28;20128;-64
2022/07/20 12:50:40;;;;;;;1.50;1.10;;;;;;;;;;4968616;28;20124;-64
2022/07/20 12:53:06;;;;;;;3.15;1.27;;;;;;;;;;4969878;28;20464;-65
2022/07/20 12:55:31;;;;;;;1.73;1.23;;;;;;;;;;4970037;28;20022;-65
2022/07/20 12:57:56;;;;;;;2.90;1.25;;;;;;;;;;4969977;28;20435;-65
2022/07/20 13:00:22;;;;;;;1.77;1.13;;;;;;;;;;4969640;28;20380;-64
2022/07/20 13:02:47;;;;;;;1.58;1.23;;;;;;;;;;4969989;28;20087;-64
2022/07/20 13:05:13;;;;;;;1.60;1.20;;;;;;;;;;4969836;28;20074;-66
2022/07/20 13:07:38;;;;;;;1.67;1.27;;;;;;;;;;4969840;28;20112;-64
2022/07/20 13:10:04;;;;;;;3.03;1.40;;;;;;;;;;4951819;28;20436;-64
2022/07/20 13:12:29;;;;;;;2.67;1.27;;;;;;;;;;4952259;28;20060;-64
2022/07/20 13:14:55;;;;;;;2.13;1.38;;;;;;;;;;4969116;28;20472;-64
2022/07/20 13:17:20;;;;;;;0.98;0.85;;;;;;;;;;4969361;28;20380;-66
2022/07/20 13:19:46;;;;;;;2.35;1.30;;;;;;;;;;4970306;28;20387;-65
2022/07/20 13:22:12;;;;;;;1.65;1.20;;;;;;;;;;4969129;28;20394;-64
2022/07/20 13:24:37;;;;;;;2.28;1.33;;;;;;;;;;4951925;28;20021;-64
2022/07/20 13:27:03;;;;;;;2.10;1.30;;;;;;;;;;4969039;28;20444;-64
2022/07/20 13:29:28;;;;;;;3.42;1.33;;;;;;;;;;4970374;28;20025;-66
2022/07/20 13:31:54;;;;;;;1.80;1.40;;;;;;;;;;4969369;28;20524;-64
2022/07/20 13:34:19;;;;;;;2.08;1.10;;;;;;;;;;4969121;28;20468;-65
2022/07/20 13:36:45;;;;;;;2.05;1.48;;;;;;;;;;4970795;28;20029;-65
2022/07/20 13:39:10;;;;;;;2.45;1.50;;;;;;;;;;4951008;28;20432;-65
2022/07/20 13:41:36;;;;;;;2.65;1.25;;;;;;;;;;4968982;28;20372;-66
2022/07/20 13:44:01;;;;;;;1.20;0.93;;;;;;;;;;4969010;28;20396;-65
2022/07/20 13:46:27;;;;;;;1.58;1.20;;;;;;;;;;4968836;28;20458;-63
2022/07/20 13:48:55;;;;;;;3.47;1.35;;;;;;;;;;4968382;28;20026;-64
2022/07/20 13:51:21;;;;;;;2.05;1.48;;;;;;;;;;4969001;28;20473;-64
2022/07/20 13:53:46;;;;;;;1.73;1.30;;;;;;;;;;4968918;28;20172;-65
2022/07/20 13:56:11;;;;;;;2.42;1.23;;;;;;;;;;4968207;28;20453;-65
2022/07/20 13:58:38;;;;;;;2.28;1.10;;;;;;;;;;4968383;28;20053;-63
2022/07/20 14:01:05;;;;;;;6.05;1.40;;;;;;;;;;4968575;28;20482;-63
2022/07/20 14:03:30;;;;;;;2.53;1.30;;;;;;;;;;4968857;28;20088;-65
2022/07/20 14:05:56;;;;;;;2.40;1.52;;;;;;;;;;4968904;28;20133;-63
2022/07/20 14:08:21;;;;;;;2.75;1.42;;;;;;;;;;4968438;28;20112;-64
2022/07/20 14:10:47;;;;;;;2.30;1.52;;;;;;;;;;4968653;28;20017;-64
2022/07/20 14:13:13;;;;;;;1.60;1.25;;;;;;;;;;4950679;28;20463;-63
2022/07/20 14:15:40;;;;;;;3.50;2.10;;;;;;;;;;4950698;28;20025;-64
2022/07/20 14:18:05;;;;;;;3.35;1.30;;;;;;;;;;4951088;28;20072;-64
2022/07/20 14:20:31;;;;;;;2.25;1.60;;;;;;;;;;4969380;28;20484;-64
2022/07/20 14:22:56;;;;;;;2.28;1.40;;;;;;;;;;4969215;28;20382;-63
2022/07/20 14:25:22;;;;;;;2.60;1.52;;;;;;;;;;4968768;28;20375;-64
2022/07/20 14:27:47;;;;;;;3.10;1.25;;;;;;;;;;4967988;28;20503;-64
2022/07/20 14:30:14;;;;;;;3.05;1.83;;;;;;;;;;4968069;28;20094;-64
2022/07/20 14:32:39;;;;;;;2.10;1.40;;;;;;;;;;4968847;28;20367;-63
2022/07/20 14:35:05;;;;;;;2.58;1.40;;;;;;;;;;4967568;28;20030;-64
2022/07/20 14:37:30;;;;;;;1.90;1.27;;;;;;;;;;4968252;28;20411;-65
2022/07/20 14:39:56;;;;;;;4.28;1.20;;;;;;;;;;4969831;28;20029;-64
2022/07/20 14:42:21;;;;;;;2.13;1.35;;;;;;;;;;4967995;28;20411;-64
2022/07/20 14:44:47;;;;;;;2.47;1.30;;;;;;;;;;4968884;28;20033;-64
2022/07/20 14:47:12;;;;;;;1.88;1.30;;;;;;;;;;4967922;28;20460;-64